Time;durP1;ratioP1;P1;durP2;ratioP2;P2;SDS_P1;SDS_P2;PMS_P1;PMS_P2;Temp;Humidity;BMP_temperature;BMP_pressure;BME280_temperature;BME280_humidity;BME280_pressure;Samples;Min_cycle;Max_cycle;Signal;HPM_P1;HPM_P2
2022/08/28 00:00:15;;;;;;;;;;;;;;;;;;5005413;28;20253;-85
2022/08/28 00:02:40;;;;;;;;;;;;;;;;;;5009645;28;19913;-85
2022/08/28 00:05:05;;;;;;;;;;;;;;;;;;5006806;28;19936;-85
2022/08/28 00:07:31;;;;;;;;;;;;;;;;;;5012573;28;20000;-85
2022/08/28 00:09:56;;;;;;;;;;;;;;;;;;5015470;28;19910;-85
2022/08/28 00:12:21;;;;;;;;;;;;;;;;;;4999201;28;19918;-85
2022/08/28 00:14:46;;;;;;;;;;;;;;;;;;4980057;28;19914;-85
2022/08/28 00:17:11;;;;;;;;;;;;;;;;;;4981622;28;20264;-85
2022/08/28 00:19:36;;;;;;;;;;;;;;;;;;5003067;28;19914;-85
2022/08/28 00:22:03;;;;;;;;;;;;;;;;;;5005354;28;20000;-84
2022/08/28 00:24:28;;;;;;;;;;;;;;;;;;4997801;28;20398;-84
2022/08/28 00:29:37;;;;;;;;;;;;;;;;;;4997314;28;19992;-84
2022/08/28 00:32:02;;;;;;;;;;;;;;;;;;4999747;28;20020;-84
2022/08/28 00:34:27;;;;;;;;;;;;;;;;;;4996497;28;19928;-83
2022/08/28 00:36:52;;;;;;;;;;;;;;;;;;4995928;28;19968;-84
2022/08/28 00:39:18;;;;;;;;;;;;;;;;;;4999129;28;19921;-84
2022/08/28 00:41:43;;;;;;;;;;;;;;;;;;4998754;28;19944;-84
2022/08/28 00:44:08;;;;;;;;;;;;;;;;;;4998079;28;19922;-84
2022/08/28 00:46:33;;;;;;;;;;;;;;;;;;4997992;28;20252;-84
2022/08/28 00:48:58;;;;;;;;;;;;;;;;;;5000896;28;19913;-84
2022/08/28 00:54:08;;;;;;;;;;;;;;;;;;4995471;28;19937;-84
2022/08/28 00:56:33;;;;;;;;;;;;;;;;;;4997048;28;19917;-84
2022/08/28 00:58:58;;;;;;;;;;;;;;;;;;4997773;28;19922;-85
2022/08/28 01:01:23;;;;;;;;;;;;;;;;;;4999551;28;19914;-84
2022/08/28 01:03:49;;;;;;;;;;;;;;;;;;5000407;28;19921;-85
2022/08/28 01:06:14;;;;;;;;;;;;;;;;;;5004494;28;20367;-85
2022/08/28 01:08:39;;;;;;;;;;;;;;;;;;5002563;28;19936;-84
2022/08/28 01:11:04;;;;;;;;;;;;;;;;;;4996286;28;19957;-84
2022/08/28 01:13:29;;;;;;;;;;;;;;;;;;4996065;28;19928;-84
2022/08/28 01:15:55;;;;;;;;;;;;;;;;;;4998355;28;19918;-84
2022/08/28 01:18:21;;;;;;;;;;;;;;;;;;4997735;28;19913;-85
2022/08/28 01:20:46;;;;;;;;;;;;;;;;;;5001311;28;19917;-85
2022/08/28 01:23:12;;;;;;;;;;;;;;;;;;4997306;28;19940;-85
2022/08/28 01:25:37;;;;;;;;;;;;;;;;;;5000173;28;20372;-85
2022/08/28 01:28:03;;;;;;;;;;;;;;;;;;5000384;28;19914;-85
2022/08/28 01:30:28;;;;;;;;;;;;;;;;;;5003548;28;19928;-85
2022/08/28 01:32:53;;;;;;;;;;;;;;;;;;5002314;28;19988;-85
2022/08/28 01:35:18;;;;;;;;;;;;;;;;;;5001799;28;19917;-85
2022/08/28 01:37:44;;;;;;;;;;;;;;;;;;4997343;28;20558;-84
2022/08/28 01:40:09;;;;;;;;;;;;;;;;;;5000838;28;20397;-85
2022/08/28 01:42:34;;;;;;;;;;;;;;;;;;5001968;28;20287;-84
2022/08/28 01:45:00;;;;;;;;;;;;;;;;;;5002458;28;19913;-84
2022/08/28 01:47:25;;;;;;;;;;;;;;;;;;5001267;28;20383;-85
2022/08/28 01:49:50;;;;;;;;;;;;;;;;;;4998037;28;19960;-84
2022/08/28 01:52:15;;;;;;;;;;;;;;;;;;4999539;28;20573;-84
2022/08/28 01:54:41;;;;;;;;;;;;;;;;;;4998709;28;19914;-85
2022/08/28 01:57:06;;;;;;;;;;;;;;;;;;5001828;28;19914;-84
2022/08/28 01:59:32;;;;;;;;;;;;;;;;;;4999080;28;20044;-85
2022/08/28 02:01:57;;;;;;;;;;;;;;;;;;4998643;28;19913;-85
2022/08/28 02:04:23;;;;;;;;;;;;;;;;;;5002928;28;19918;-85
2022/08/28 02:06:48;;;;;;;;;;;;;;;;;;5000797;28;20468;-85
2022/08/28 02:09:13;;;;;;;;;;;;;;;;;;4999331;28;20044;-85
2022/08/28 02:11:41;;;;;;;;;;;;;;;;;;4999073;28;19918;-84
2022/08/28 02:14:06;;;;;;;;;;;;;;;;;;5008271;28;19913;-85
2022/08/28 02:16:31;;;;;;;;;;;;;;;;;;5003889;28;19925;-85
2022/08/28 02:18:57;;;;;;;;;;;;;;;;;;4997465;28;19914;-85
2022/08/28 02:21:22;;;;;;;;;;;;;;;;;;5000053;28;19976;-85
2022/08/28 02:23:47;;;;;;;;;;;;;;;;;;5000302;28;19920;-85
2022/08/28 02:26:12;;;;;;;;;;;;;;;;;;5000544;28;19914;-86
2022/08/28 02:28:37;;;;;;;;;;;;;;;;;;4997722;28;19918;-85
2022/08/28 02:31:02;;;;;;;;;;;;;;;;;;4999001;28;19924;-84
2022/08/28 02:33:27;;;;;;;;;;;;;;;;;;4996537;28;20477;-85
2022/08/28 02:35:53;;;;;;;;;;;;;;;;;;4997091;28;19914;-85
2022/08/28 02:38:18;;;;;;;;;;;;;;;;;;4997301;28;20414;-86
2022/08/28 02:40:43;;;;;;;;;;;;;;;;;;5000584;28;20004;-86
2022/08/28 02:43:08;;;;;;;;;;;;;;;;;;5003044;28;20291;-86
2022/08/28 02:45:33;;;;;;;;;;;;;;;;;;5004829;28;19960;-86
2022/08/28 02:48:00;;;;;;;;;;;;;;;;;;5003037;28;20311;-86
2022/08/28 02:50:25;;;;;;;;;;;;;;;;;;5000257;28;19914;-86
2022/08/28 02:52:50;;;;;;;;;;;;;;;;;;5000101;28;20284;-86
2022/08/28 02:55:16;;;;;;;;;;;;;;;;;;5003631;28;20555;-86
2022/08/28 02:57:41;;;;;;;;;;;;;;;;;;5001654;28;20287;-85
2022/08/28 03:00:06;;;;;;;;;;;;;;;;;;4993962;28;19917;-86
2022/08/28 03:02:32;;;;;;;;;;;;;;;;;;5006213;28;20363;-86
2022/08/28 03:04:58;;;;;;;;;;;;;;;;;;4983841;28;19957;-86
2022/08/28 03:07:23;;;;;;;;;;;;;;;;;;5001327;28;19914;-86
2022/08/28 03:09:48;;;;;;;;;;;;;;;;;;5000949;28;19945;-85
2022/08/28 03:12:15;;;;;;;;;;;;;;;;;;4997414;28;20351;-86
2022/08/28 03:14:41;;;;;;;;;;;;;;;;;;5007145;28;19914;-86
2022/08/28 03:17:06;;;;;;;;;;;;;;;;;;4988216;28;20543;-85
2022/08/28 03:19:31;;;;;;;;;;;;;;;;;;5002874;28;19917;-85
2022/08/28 03:21:56;;;;;;;;;;;;;;;;;;4984566;28;19965;-86
2022/08/28 03:24:22;;;;;;;;;;;;;;;;;;5004502;28;19914;-86
2022/08/28 03:26:47;;;;;;;;;;;;;;;;;;5004823;28;19967;-85
2022/08/28 03:29:12;;;;;;;;;;;;;;;;;;5002936;28;19913;-86
2022/08/28 03:31:37;;;;;;;;;;;;;;;;;;5007339;28;19921;-86
2022/08/28 03:34:03;;;;;;;;;;;;;;;;;;5001798;28;19914;-86
2022/08/28 03:36:28;;;;;;;;;;;;;;;;;;5004312;28;20001;-85
2022/08/28 03:38:53;;;;;;;;;;;;;;;;;;5001901;28;19914;-86
2022/08/28 03:41:19;;;;;;;;;;;;;;;;;;5006907;28;19925;-86
2022/08/28 03:43:44;;;;;;;;;;;;;;;;;;5003633;28;19920;-85
2022/08/28 03:46:09;;;;;;;;;;;;;;;;;;5007591;28;19917;-86
2022/08/28 03:48:35;;;;;;;;;;;;;;;;;;5004217;28;19991;-86
2022/08/28 03:51:00;;;;;;;;;;;;;;;;;;5006452;28;19918;-86
2022/08/28 03:53:25;;;;;;;;;;;;;;;;;;5008078;28;19920;-86
2022/08/28 03:55:50;;;;;;;;;;;;;;;;;;5004623;28;20401;-86
2022/08/28 03:58:15;;;;;;;;;;;;;;;;;;5007379;28;19913;-86
2022/08/28 04:00:41;;;;;;;;;;;;;;;;;;5005756;28;20346;-86
2022/08/28 04:03:06;;;;;;;;;;;;;;;;;;5000840;28;20437;-86
2022/08/28 04:05:33;;;;;;;;;;;;;;;;;;5001557;28;19936;-86
2022/08/28 04:07:58;;;;;;;;;;;;;;;;;;5001272;28;19921;-86
2022/08/28 04:10:24;;;;;;;;;;;;;;;;;;4998502;28;19918;-86
2022/08/28 04:12:49;;;;;;;;;;;;;;;;;;4982860;28;19921;-86
2022/08/28 04:15:14;;;;;;;;;;;;;;;;;;5003884;28;19910;-86
2022/08/28 04:17:39;;;;;;;;;;;;;;;;;;5001999;28;20360;-85
2022/08/28 04:20:05;;;;;;;;;;;;;;;;;;5002938;28;20017;-86
2022/08/28 04:22:30;;;;;;;;;;;;;;;;;;5003428;28;19929;-86
2022/08/28 04:24:55;;;;;;;;;;;;;;;;;;5002153;28;19996;-86
2022/08/28 04:27:20;;;;;;;;;;;;;;;;;;4997780;28;19914;-88
2022/08/28 04:29:47;;;;;;;;;;;;;;;;;;4993458;28;19909;-88
2022/08/28 04:32:12;;;;;;;;;;;;;;;;;;4993032;28;19914;-88
2022/08/28 04:34:37;;;;;;;;;;;;;;;;;;4993158;28;19917;-88
2022/08/28 04:37:02;;;;;;;;;;;;;;;;;;4975825;28;19918;-88
2022/08/28 04:39:27;;;;;;;;;;;;;;;;;;4993082;28;20403;-88
2022/08/28 04:41:53;;;;;;;;;;;;;;;;;;4993390;28;19910;-88
2022/08/28 04:44:18;;;;;;;;;;;;;;;;;;4975507;28;19921;-88
2022/08/28 04:46:43;;;;;;;;;;;;;;;;;;4992939;28;19997;-88
2022/08/28 04:49:09;;;;;;;;;;;;;;;;;;4975795;28;19914;-88
2022/08/28 04:51:34;;;;;;;;;;;;;;;;;;4993056;28;20084;-88
2022/08/28 04:53:59;;;;;;;;;;;;;;;;;;4992908;28;20415;-88
2022/08/28 04:56:25;;;;;;;;;;;;;;;;;;4992754;28;19909;-88
2022/08/28 04:58:50;;;;;;;;;;;;;;;;;;4999795;28;19918;-88
2022/08/28 05:01:17;;;;;;;;;;;;;;;;;;5012609;28;19965;-88
2022/08/28 05:03:42;;;;;;;;;;;;;;;;;;4993138;28;19914;-88
2022/08/28 05:06:07;;;;;;;;;;;;;;;;;;4992629;28;19914;-88
2022/08/28 05:08:33;;;;;;;;;;;;;;;;;;4992664;28;20315;-88
2022/08/28 05:10:58;;;;;;;;;;;;;;;;;;4992206;28;19996;-88
2022/08/28 05:13:23;;;;;;;;;;;;;;;;;;5005805;28;19909;-88
2022/08/28 05:15:48;;;;;;;;;;;;;;;;;;4981648;28;19917;-88
2022/08/28 05:18:14;;;;;;;;;;;;;;;;;;5023911;28;19917;-88
2022/08/28 05:20:39;;;;;;;;;;;;;;;;;;5023600;28;20004;-87
2022/08/28 05:23:04;;;;;;;;;;;;;;;;;;4992391;28;19925;-88
2022/08/28 05:25:31;;;;;;;;;;;;;;;;;;5001645;28;20337;-88
2022/08/28 05:27:56;;;;;;;;;;;;;;;;;;5010687;28;20260;-88
2022/08/28 05:30:22;;;;;;;;;;;;;;;;;;5012557;28;19913;-88
2022/08/28 05:32:47;;;;;;;;;;;;;;;;;;5011035;28;20011;-87
2022/08/28 05:35:12;;;;;;;;;;;;;;;;;;5011163;28;19914;-87
2022/08/28 05:37:38;;;;;;;;;;;;;;;;;;5011407;28;19956;-87
2022/08/28 05:40:03;;;;;;;;;;;;;;;;;;5011775;28;19916;-88
2022/08/28 05:42:28;;;;;;;;;;;;;;;;;;5011414;28;20426;-88
2022/08/28 05:44:53;;;;;;;;;;;;;;;;;;5009745;28;19910;-88
2022/08/28 05:47:18;;;;;;;;;;;;;;;;;;5019764;28;20008;-87
2022/08/28 05:49:43;;;;;;;;;;;;;;;;;;5029185;28;19963;-87
2022/08/28 05:52:08;;;;;;;;;;;;;;;;;;5021669;28;20011;-87
2022/08/28 05:54:34;;;;;;;;;;;;;;;;;;5011396;28;20334;-87
2022/08/28 05:56:59;;;;;;;;;;;;;;;;;;5011676;28;20322;-87
2022/08/28 05:59:24;;;;;;;;;;;;;;;;;;5022808;28;20153;-87
2022/08/28 06:01:49;;;;;;;;;;;;;;;;;;5031356;28;19918;-87
2022/08/28 06:04:16;;;;;;;;;;;;;;;;;;5031312;28;19916;-88
2022/08/28 06:06:41;;;;;;;;;;;;;;;;;;5031518;28;19921;-88
2022/08/28 06:09:06;;;;;;;;;;;;;;;;;;5031729;28;19909;-88
2022/08/28 06:11:32;;;;;;;;;;;;;;;;;;5031499;28;19913;-87
2022/08/28 06:13:57;;;;;;;;;;;;;;;;;;5030941;28;19985;-88
2022/08/28 06:16:22;;;;;;;;;;;;;;;;;;5017139;28;20265;-88
2022/08/28 06:18:49;;;;;;;;;;;;;;;;;;5011282;28;19916;-88
2022/08/28 06:21:14;;;;;;;;;;;;;;;;;;5010863;28;19916;-88
2022/08/28 06:23:40;;;;;;;;;;;;;;;;;;5011078;28;19909;-88
2022/08/28 06:26:05;;;;;;;;;;;;;;;;;;5010751;28;19909;-88
2022/08/28 06:28:31;;;;;;;;;;;;;;;;;;5015262;28;19961;-89
2022/08/28 06:30:56;;;;;;;;;;;;;;;;;;5015346;28;20027;-88
2022/08/28 06:33:22;;;;;;;;;;;;;;;;;;5030979;28;19909;-88
2022/08/28 06:35:48;;;;;;;;;;;;;;;;;;5017165;28;19914;-87
2022/08/28 06:38:13;;;;;;;;;;;;;;;;;;4998017;28;19910;-88
2022/08/28 06:40:38;;;;;;;;;;;;;;;;;;5015227;28;20330;-88
2022/08/28 06:43:04;;;;;;;;;;;;;;;;;;5015059;28;19929;-88
2022/08/28 06:45:30;;;;;;;;;;;;;;;;;;5006033;28;19951;-86
2022/08/28 06:47:55;;;;;;;;;;;;;;;;;;5017869;28;19920;-87
2022/08/28 06:50:20;;;;;;;;;;;;;;;;;;5022379;28;20020;-87
2022/08/28 06:52:45;;;;;;;;;;;;;;;;;;5015308;28;19913;-89
2022/08/28 06:55:11;;;;;;;;;;;;;;;;;;5014213;28;19917;-87
2022/08/28 06:57:36;;;;;;;;;;;;;;;;;;5014788;28;20299;-88
2022/08/28 07:00:01;;;;;;;;;;;;;;;;;;4995453;28;19918;-88
2022/08/28 07:02:26;;;;;;;;;;;;;;;;;;4995386;28;19938;-88
2022/08/28 07:04:52;;;;;;;;;;;;;;;;;;5006087;28;20341;-87
2022/08/28 07:07:17;;;;;;;;;;;;;;;;;;5015075;28;19910;-87
2022/08/28 07:09:42;;;;;;;;;;;;;;;;;;5009944;28;19921;-87
2022/08/28 07:12:08;;;;;;;;;;;;;;;;;;5013665;28;20338;-87
2022/08/28 07:14:33;;;;;;;;;;;;;;;;;;5015973;28;19941;-87
2022/08/28 07:16:58;;;;;;;;;;;;;;;;;;5011633;28;20125;-88
2022/08/28 07:19:23;;;;;;;;;;;;;;;;;;5013453;28;19910;-88
2022/08/28 07:21:49;;;;;;;;;;;;;;;;;;5013807;28;19992;-89
2022/08/28 07:24:14;;;;;;;;;;;;;;;;;;5014152;28;19909;-88
2022/08/28 07:26:39;;;;;;;;;;;;;;;;;;5014036;28;20028;-88
2022/08/28 07:29:06;;;;;;;;;;;;;;;;;;5014093;28;19921;-88
2022/08/28 07:31:32;;;;;;;;;;;;;;;;;;5013909;28;19921;-88
2022/08/28 07:33:57;;;;;;;;;;;;;;;;;;5013748;28;19913;-88
2022/08/28 07:36:22;;;;;;;;;;;;;;;;;;5013959;28;20248;-89
2022/08/28 07:38:47;;;;;;;;;;;;;;;;;;5013616;28;19910;-88
2022/08/28 07:41:12;;;;;;;;;;;;;;;;;;4990487;28;20410;-88
2022/08/28 07:46:24;;;;;;;;;;;;;;;;;;5010178;28;19920;-88
2022/08/28 07:48:49;;;;;;;;;;;;;;;;;;5013402;28;19918;-88
2022/08/28 07:51:14;;;;;;;;;;;;;;;;;;5013565;28;19920;-89
2022/08/28 07:53:39;;;;;;;;;;;;;;;;;;5033406;28;20473;-88
2022/08/28 07:56:04;;;;;;;;;;;;;;;;;;5013145;28;20446;-89
2022/08/28 07:58:30;;;;;;;;;;;;;;;;;;4995450;28;19914;-88
2022/08/28 08:00:55;;;;;;;;;;;;;;;;;;5008426;28;20371;-88
2022/08/28 08:03:20;;;;;;;;;;;;;;;;;;5003498;28;20379;-88
2022/08/28 08:05:45;;;;;;;;;;;;;;;;;;4992374;28;19960;-88
2022/08/28 08:08:10;;;;;;;;;;;;;;;;;;5005593;28;19913;-88
2022/08/28 08:10:35;;;;;;;;;;;;;;;;;;5017827;28;19920;-88
2022/08/28 08:13:01;;;;;;;;;;;;;;;;;;5011798;28;20206;-89
2022/08/28 08:15:26;;;;;;;;;;;;;;;;;;5017486;28;19916;-88
2022/08/28 08:17:51;;;;;;;;;;;;;;;;;;5010357;28;19914;-89
2022/08/28 08:20:17;;;;;;;;;;;;;;;;;;5015070;28;20577;-89
2022/08/28 08:22:42;;;;;;;;;;;;;;;;;;5016684;28;20383;-88
2022/08/28 08:25:07;;;;;;;;;;;;;;;;;;5006741;28;19922;-90
2022/08/28 08:27:34;;;;;;;;;;;;;;;;;;5012254;28;20000;-90
2022/08/28 08:29:59;;;;;;;;;;;;;;;;;;5015188;28;19917;-89
2022/08/28 08:32:24;;;;;;;;;;;;;;;;;;5013756;28;19918;-90
2022/08/28 08:34:50;;;;;;;;;;;;;;;;;;5018052;28;19913;-88
2022/08/28 08:37:15;;;;;;;;;;;;;;;;;;5014450;28;19920;-87
2022/08/28 08:39:41;;;;;;;;;;;;;;;;;;5008614;28;19909;-88
2022/08/28 08:42:06;;;;;;;;;;;;;;;;;;5016233;28;19914;-88
2022/08/28 08:44:31;;;;;;;;;;;;;;;;;;5014269;28;19996;-88
2022/08/28 08:46:56;;;;;;;;;;;;;;;;;;5014473;28;19910;-88
2022/08/28 08:49:21;;;;;;;;;;;;;;;;;;4996151;28;19991;-87
2022/08/28 08:51:47;;;;;;;;;;;;;;;;;;4996489;28;20019;-88
2022/08/28 08:54:12;;;;;;;;;;;;;;;;;;4997320;28;20443;-88
2022/08/28 08:56:37;;;;;;;;;;;;;;;;;;5014935;28;19916;-88
2022/08/28 08:59:02;;;;;;;;;;;;;;;;;;5014481;28;20545;-88
2022/08/28 09:01:27;;;;;;;;;;;;;;;;;;5015671;28;19916;-89
2022/08/28 09:03:52;;;;;;;;;;;;;;;;;;5010357;28;20334;-88
2022/08/28 09:06:18;;;;;;;;;;;;;;;;;;5013708;28;20273;-88
2022/08/28 09:08:43;;;;;;;;;;;;;;;;;;5014228;28;20333;-88
2022/08/28 09:11:08;;;;;;;;;;;;;;;;;;5014284;28;19925;-87
2022/08/28 09:13:33;;;;;;;;;;;;;;;;;;5014488;28;20581;-88
2022/08/28 09:15:58;;;;;;;;;;;;;;;;;;5014346;28;19913;-88
2022/08/28 09:18:24;;;;;;;;;;;;;;;;;;5014513;28;19940;-88
2022/08/28 09:20:50;;;;;;;;;;;;;;;;;;5014035;28;20505;-88
2022/08/28 09:23:15;;;;;;;;;;;;;;;;;;5014189;28;19915;-88
2022/08/28 09:25:40;;;;;;;;;;;;;;;;;;5014114;28;19992;-87
2022/08/28 09:28:05;;;;;;;;;;;;;;;;;;5013622;28;20017;-89
2022/08/28 09:30:31;;;;;;;;;;;;;;;;;;5009781;28;19955;-87
2022/08/28 09:32:57;;;;;;;;;;;;;;;;;;4995729;28;19917;-88
2022/08/28 09:35:22;;;;;;;;;;;;;;;;;;5014142;28;20541;-88
2022/08/28 09:37:48;;;;;;;;;;;;;;;;;;5008839;28;20057;-88
2022/08/28 09:40:13;;;;;;;;;;;;;;;;;;5013215;28;19936;-89
2022/08/28 09:45:22;;;;;;;;;;;;;;;;;;5010082;28;19921;-88
2022/08/28 09:47:47;;;;;;;;;;;;;;;;;;5000844;28;20287;-88
2022/08/28 09:50:13;;;;;;;;;;;;;;;;;;5013142;28;19948;-89
2022/08/28 09:55:25;;;;;;;;;;;;;;;;;;5011605;28;19909;-89
2022/08/28 09:57:51;;;;;;;;;;;;;;;;;;5011829;28;20282;-88
2022/08/28 10:00:16;;;;;;;;;;;;;;;;;;5011822;28;19917;-87
2022/08/28 10:02:41;;;;;;;;;;;;;;;;;;4989593;28;19920;-88
2022/08/28 10:05:06;;;;;;;;;;;;;;;;;;5011568;28;19936;-87
2022/08/28 10:07:32;;;;;;;;;;;;;;;;;;5005287;28;19914;-87
2022/08/28 10:10:40;;;;;;;;;;;;;;;;;;;;;
2022/08/28 10:13:31;;;;;;;;;;;;;;;;;;4994036;28;19913;-87
2022/08/28 10:15:37;;;;;;;;;;;;;;;;;;4999630;28;19909;-85
2022/08/28 10:18:08;;;;;;;;;;;;;;;;;;5013319;28;19917;-88
2022/08/28 10:20:36;;;;;;;;;;;;;;;;;;5013354;28;19937;-85
2022/08/28 10:23:01;;;;;;;;;;;;;;;;;;4996524;28;19917;-88
2022/08/28 10:25:28;;;;;;;;;;;;;;;;;;5011979;28;19913;-86
2022/08/28 11:14:17;;;;;;;;;;;;;;;;;;4985934;28;19937;-88
2022/08/28 11:16:42;;;;;;;;;;;;;;;;;;4987882;28;20453;-89
2022/08/28 11:19:07;;;;;;;;;;;;;;;;;;4984495;28;19914;-88
2022/08/28 11:21:32;;;;;;;;;;;;;;;;;;4985638;28;19948;-89
2022/08/28 11:23:57;;;;;;;;;;;;;;;;;;4968817;28;20387;-90
2022/08/28 11:26:23;;;;;;;;;;;;;;;;;;5032673;23;19929;-85
2022/08/28 11:28:48;;;;;;;;;;;;;;;;;;5031288;28;19937;-86
2022/08/28 11:31:13;;;;;;;;;;;;;;;;;;5027441;28;19951;-85
2022/08/28 11:33:38;;;;;;;;;;;;;;;;;;5035402;28;20297;-85
2022/08/28 11:36:03;;;;;;;;;;;;;;;;;;5022685;28;19945;-86
2022/08/28 11:38:28;;;;;;;;;;;;;;;;;;5015992;28;19917;-86
2022/08/28 11:40:56;;;;;;;;;;;;;;;;;;5010446;28;19924;-85
2022/08/28 11:43:22;;;;;;;;;;;;;;;;;;5014722;28;19933;-85
2022/08/28 11:45:48;;;;;;;;;;;;;;;;;;5017320;28;20367;-85
2022/08/28 11:48:14;;;;;;;;;;;;;;;;;;5004651;28;19944;-85
2022/08/28 11:50:39;;;;;;;;;;;;;;;;;;5009397;28;19917;-86
2022/08/28 11:53:04;;;;;;;;;;;;;;;;;;5011731;28;19934;-86
2022/08/28 11:55:29;;;;;;;;;;;;;;;;;;5016999;28;20031;-85
2022/08/28 11:57:54;;;;;;;;;;;;;;;;;;5016633;28;20397;-86
2022/08/28 12:00:20;;;;;;;;;;;;;;;;;;5018403;28;19925;-86
2022/08/28 12:02:45;;;;;;;;;;;;;;;;;;5015378;28;19917;-86
2022/08/28 12:05:10;;;;;;;;;;;;;;;;;;5007852;28;20283;-85
2022/08/28 12:07:35;;;;;;;;;;;;;;;;;;5008405;28;19924;-84
2022/08/28 12:10:01;;;;;;;;;;;;;;;;;;5013848;28;20425;-84
2022/08/28 12:12:26;;;;;;;;;;;;;;;;;;5016446;28;19917;-86
2022/08/28 12:14:51;;;;;;;;;;;;;;;;;;5013539;28;20386;-86
2022/08/28 12:17:16;;;;;;;;;;;;;;;;;;4996695;28;19996;-85
2022/08/28 12:19:41;;;;;;;;;;;;;;;;;;5005333;28;20341;-85
2022/08/28 12:22:07;;;;;;;;;;;;;;;;;;5012778;28;19913;-85
2022/08/28 12:24:32;;;;;;;;;;;;;;;;;;5009171;28;19917;-85
2022/08/28 12:26:57;;;;;;;;;;;;;;;;;;5008707;28;20387;-85
2022/08/28 12:29:22;;;;;;;;;;;;;;;;;;5015066;28;19921;-85
2022/08/28 12:34:31;;;;;;;;;;;;;;;;;;5010092;28;20441;-84
2022/08/28 12:36:56;;;;;;;;;;;;;;;;;;5008327;28;20004;-85
2022/08/28 12:39:21;;;;;;;;;;;;;;;;;;5016991;28;19923;-85
2022/08/28 12:41:47;;;;;;;;;;;;;;;;;;5014199;28;19938;-85
2022/08/28 12:44:13;;;;;;;;;;;;;;;;;;5014487;28;19927;-85
2022/08/28 12:46:38;;;;;;;;;;;;;;;;;;5015076;28;19975;-85
2022/08/28 12:49:03;;;;;;;;;;;;;;;;;;4986724;28;19913;-85
2022/08/28 12:51:28;;;;;;;;;;;;;;;;;;5006013;28;19933;-85
2022/08/28 12:53:54;;;;;;;;;;;;;;;;;;5007646;28;20375;-84
2022/08/28 12:56:19;;;;;;;;;;;;;;;;;;5012208;28;19921;-85
2022/08/28 12:58:44;;;;;;;;;;;;;;;;;;5003885;28;19914;-85
2022/08/28 13:01:09;;;;;;;;;;;;;;;;;;5006933;28;19924;-85
2022/08/28 13:03:35;;;;;;;;;;;;;;;;;;5011101;28;19936;-87
2022/08/28 13:06:00;;;;;;;;;;;;;;;;;;5021670;28;19920;-87
2022/08/28 13:08:25;;;;;;;;;;;;;;;;;;5023919;28;20007;-87
2022/08/28 13:10:50;;;;;;;;;;;;;;;;;;5020387;28;19916;-87
2022/08/28 13:13:15;;;;;;;;;;;;;;;;;;5029931;28;20255;-87
2022/08/28 13:15:40;;;;;;;;;;;;;;;;;;5028518;28;19921;-87
2022/08/28 13:18:07;;;;;;;;;;;;;;;;;;5012965;28;20338;-87
2022/08/28 13:20:32;;;;;;;;;;;;;;;;;;5025026;28;19967;-87
2022/08/28 13:22:57;;;;;;;;;;;;;;;;;;5015773;28;19917;-88
2022/08/28 13:25:22;;;;;;;;;;;;;;;;;;5023591;28;19927;-87
2022/08/28 13:27:47;;;;;;;;;;;;;;;;;;5012841;28;19921;-87
2022/08/28 13:30:20;;;;;;;;;;;;;;;;;;5010991;28;20008;-88
2022/08/28 13:32:48;;;;;;;;;;;;;;;;;;5011268;28;20360;-87
2022/08/28 13:35:15;;;;;;;;;;;;;;;;;;5012094;28;20166;-87
2022/08/28 13:37:41;;;;;;;;;;;;;;;;;;5011574;28;19913;-87
2022/08/28 13:40:24;;;;;;;;;;;;;;;;;;4997456;28;19909;-88
2022/08/28 13:42:58;;;;;;;;;;;;;;;;;;5013179;28;19971;-87
2022/08/28 13:45:26;;;;;;;;;;;;;;;;;;5014760;28;19921;-87
2022/08/28 13:47:54;;;;;;;;;;;;;;;;;;5015553;28;19910;-87
2022/08/28 13:50:19;;;;;;;;;;;;;;;;;;4996732;28;20355;-87
2022/08/28 13:55:35;;;;;;;;;;;;;;;;;;5012503;28;20000;-87
2022/08/28 13:58:08;;;;;;;;;;;;;;;;;;5012913;28;19909;-86
2022/08/28 14:00:42;;;;;;;;;;;;;;;;;;5012189;28;20012;-87
2022/08/28 14:05:50;;;;;;;;;;;;;;;;;;5032760;28;19917;-87
2022/08/28 14:08:21;;;;;;;;;;;;;;;;;;5024334;28;19909;-87
2022/08/28 14:10:48;;;;;;;;;;;;;;;;;;5014210;28;19910;-88
2022/08/28 14:13:31;;;;;;;;;;;;;;;;;;5011394;28;19914;-87
2022/08/28 14:16:07;;;;;;;;;;;;;;;;;;;;;
2022/08/28 14:18:34;;;;;;;;;;;;;;;;;;5009641;28;19910;-87
2022/08/28 14:21:12;;;;;;;;;;;;;;;;;;;;;
2022/08/28 14:23:50;;;;;;;;;;;;;;;;;;4980327;28;19960;-87
2022/08/28 14:29:16;;;;;;;;;;;;;;;;;;5013150;28;19909;-87
2022/08/28 14:31:50;;;;;;;;;;;;;;;;;;5011411;28;20351;-88
2022/08/28 14:34:15;;;;;;;;;;;;;;;;;;5012802;28;20274;-87
2022/08/28 14:36:43;;;;;;;;;;;;;;;;;;5012397;28;20000;-88
2022/08/28 14:39:11;;;;;;;;;;;;;;;;;;5012686;28;20000;-87
2022/08/28 14:44:21;;;;;;;;;;;;;;;;;;5003372;28;19909;-87
2022/08/28 14:47:15;;;;;;;;;;;;;;;;;;;;;
2022/08/28 14:57:46;;;;;;;;;;;;;;;;;;5016868;28;20370;-87
2022/08/28 15:00:14;;;;;;;;;;;;;;;;;;5015888;28;19940;-87
2022/08/28 15:02:48;;;;;;;;;;;;;;;;;;5016326;28;19910;-87
2022/08/28 15:05:22;;;;;;;;;;;;;;;;;;5003921;28;19917;-87
2022/08/28 15:08:08;;;;;;;;;;;;;;;;;;4996515;28;19910;-87
2022/08/28 15:10:33;;;;;;;;;;;;;;;;;;4996265;28;19910;-86
2022/08/28 15:13:04;;;;;;;;;;;;;;;;;;4996281;28;20359;-87
2022/08/28 15:15:38;;;;;;;;;;;;;;;;;;4996348;28;19936;-87
2022/08/28 15:18:22;;;;;;;;;;;;;;;;;;;;;
2022/08/28 15:21:07;;;;;;;;;;;;;;;;;;4955157;28;19911;-87
2022/08/28 15:23:32;;;;;;;;;;;;;;;;;;4955042;29;19933;-88
2022/08/28 15:26:02;;;;;;;;;;;;;;;;;;4980391;28;20371;-87
2022/08/28 15:28:31;;;;;;;;;;;;;;;;;;4994733;28;19997;-88
2022/08/28 15:31:06;;;;;;;;;;;;;;;;;;;;;
2022/08/28 15:33:34;;;;;;;;;;;;;;;;;;5018777;28;19916;-88
2022/08/28 15:36:00;;;;;;;;;;;;;;;;;;5013526;28;19971;-86
2022/08/28 15:38:25;;;;;;;;;;;;;;;;;;5015769;28;20509;-86
2022/08/28 15:43:41;;;;;;;;;;;;;;;;;;5014792;28;20322;-88
2022/08/28 16:54:36;;;;;;;;;;;;;;;;;;;;;
2022/08/28 16:57:02;;;;;;;;;;;;;;;;;;4971503;28;19918;-87
2022/08/28 16:59:43;;;;;;;;;;;;;;;;;;;;;
2022/08/28 17:02:32;;;;;;;;;;;;;;;;;;4968092;28;19925;-86
2022/08/28 17:05:02;;;;;;;;;;;;;;;;;;4966913;28;19922;-86
2022/08/28 17:07:46;;;;;;;;;;;;;;;;;;;;;
2022/08/28 17:18:31;;;;;;;;;;;;;;;;;;4965412;28;19917;-86
2022/08/28 17:29:23;;;;;;;;;;;;;;;;;;4958130;28;19914;-84
2022/08/28 17:31:57;;;;;;;;;;;;;;;;;;4970655;28;19918;-84
2022/08/28 17:34:31;;;;;;;;;;;;;;;;;;4966582;28;20519;-84
2022/08/28 17:37:00;;;;;;;;;;;;;;;;;;4967020;28;19914;-85
2022/08/28 17:39:32;;;;;;;;;;;;;;;;;;4970459;28;19914;-84
2022/08/28 17:42:00;;;;;;;;;;;;;;;;;;4972230;28;19972;-84
2022/08/28 17:44:35;;;;;;;;;;;;;;;;;;4976518;28;19914;-85
2022/08/28 17:49:54;;;;;;;;;;;;;;;;;;4948058;29;19922;-85
2022/08/28 17:52:25;;;;;;;;;;;;;;;;;;4972902;28;19972;-85
2022/08/28 17:54:55;;;;;;;;;;;;;;;;;;4975860;28;19914;-84
2022/08/28 17:57:29;;;;;;;;;;;;;;;;;;4967731;28;19914;-84
2022/08/28 18:02:43;;;;;;;;;;;;;;;;;;4966788;28;19921;-84
2022/08/28 18:05:21;;;;;;;;;;;;;;;;;;;;;
2022/08/28 18:21:40;;;;;;;;;;;;;;;;;;4957678;28;19965;-85
2022/08/28 18:29:38;;;;;;;;;;;;;;;;;;4985000;28;19920;-85
2022/08/28 18:32:03;;;;;;;;;;;;;;;;;;4985435;28;20008;-85
2022/08/28 18:34:29;;;;;;;;;;;;;;;;;;4989527;28;19972;-85
2022/08/28 18:36:54;;;;;;;;;;;;;;;;;;4994405;28;19914;-85
2022/08/28 18:39:19;;;;;;;;;;;;;;;;;;4992067;28;19910;-85
2022/08/28 18:41:50;;;;;;;;;;;;;;;;;;4987419;28;19921;-84
2022/08/28 18:44:18;;;;;;;;;;;;;;;;;;4996673;28;20381;-85
2022/08/28 18:49:27;;;;;;;;;;;;;;;;;;4990743;28;19917;-85
2022/08/28 18:51:52;;;;;;;;;;;;;;;;;;4993082;28;19921;-85
2022/08/28 18:54:17;;;;;;;;;;;;;;;;;;4992739;28;19920;-85
2022/08/28 18:56:50;;;;;;;;;;;;;;;;;;4993724;28;19941;-84
2022/08/28 19:02:46;;;;;;;;;;;;;;;;;;;;;
2022/08/28 19:10:32;;;;;;;;;;;;;;;;;;4980751;28;20290;-85
2022/08/28 19:20:50;;;;;;;;;;;;;;;;;;4992172;28;19926;-84
2022/08/28 19:23:20;;;;;;;;;;;;;;;;;;4990916;28;19917;-85
2022/08/28 19:25:48;;;;;;;;;;;;;;;;;;4985391;28;19922;-84
2022/08/28 19:28:14;;;;;;;;;;;;;;;;;;4990969;28;20270;-85
2022/08/28 19:30:39;;;;;;;;;;;;;;;;;;4980147;28;19952;-85
2022/08/28 19:33:21;;;;;;;;;;;;;;;;;;4971543;28;19929;-85
2022/08/28 19:35:49;;;;;;;;;;;;;;;;;;4987238;28;19928;-85
2022/08/28 19:38:17;;;;;;;;;;;;;;;;;;4973673;28;19914;-84
2022/08/28 19:57:37;;;;;;;;;;;;;;;;;;4908009;29;20467;-85
2022/08/28 20:00:08;;;;;;;;;;;;;;;;;;4940508;28;19921;-85
2022/08/28 20:02:33;;;;;;;;;;;;;;;;;;4985931;28;19956;-84
2022/08/28 20:04:58;;;;;;;;;;;;;;;;;;4988784;28;20318;-84
2022/08/28 20:07:23;;;;;;;;;;;;;;;;;;4984997;28;19918;-84
2022/08/28 20:09:49;;;;;;;;;;;;;;;;;;4986210;28;19942;-84
2022/08/28 20:12:14;;;;;;;;;;;;;;;;;;4989379;28;20486;-84
2022/08/28 20:14:41;;;;;;;;;;;;;;;;;;4999473;28;19918;-84
2022/08/28 20:17:06;;;;;;;;;;;;;;;;;;4990698;28;19937;-85
2022/08/28 20:19:32;;;;;;;;;;;;;;;;;;4987364;28;20352;-84
2022/08/28 20:21:57;;;;;;;;;;;;;;;;;;4988214;28;19918;-84
2022/08/28 20:24:23;;;;;;;;;;;;;;;;;;4966176;28;20342;-85
2022/08/28 20:26:48;;;;;;;;;;;;;;;;;;4987858;28;20012;-85
2022/08/28 20:29:13;;;;;;;;;;;;;;;;;;4987937;28;19949;-85
2022/08/28 20:31:39;;;;;;;;;;;;;;;;;;4987108;28;19918;-85
2022/08/28 20:34:04;;;;;;;;;;;;;;;;;;4987395;28;19922;-85
2022/08/28 20:36:29;;;;;;;;;;;;;;;;;;4985183;28;20107;-85
2022/08/28 20:38:54;;;;;;;;;;;;;;;;;;4984134;28;19914;-85